sensor_id;sensor_type;location;lat;lon;timestamp;P1;durP1;ratioP1;P2;durP2;ratioP2
20203;SDS011;10261;49.010;12.034;2022-10-20T00:00:45;7.72;;;6.35;;
20203;SDS011;10261;49.010;12.034;2022-10-20T00:01:48;13.45;;;6.53;;
20203;SDS011;10261;49.010;12.034;2022-10-20T00:02:50;10.48;;;5.97;;
20203;SDS011;10261;49.010;12.034;2022-10-20T00:03:53;9.75;;;6.60;;
20203;SDS011;10261;49.010;12.034;2022-10-20T00:04:56;10.98;;;6.55;;
20203;SDS011;10261;49.010;12.034;2022-10-20T00:06:05;10.65;;;5.63;;
20203;SDS011;10261;49.010;12.034;2022-10-20T00:07:08;9.68;;;6.28;;
20203;SDS011;10261;49.010;12.034;2022-10-20T00:08:11;9.50;;;5.80;;
20203;SDS011;10261;49.010;12.034;2022-10-20T00:09:13;8.23;;;6.20;;
20203;SDS011;10261;49.010;12.034;2022-10-20T00:10:16;13.85;;;6.28;;
20203;SDS011;10261;49.010;12.034;2022-10-20T00:11:20;8.45;;;7.03;;
20203;SDS011;10261;49.010;12.034;2022-10-20T00:12:24;9.80;;;6.03;;
20203;SDS011;10261;49.010;12.034;2022-10-20T00:13:26;9.35;;;6.47;;
20203;SDS011;10261;49.010;12.034;2022-10-20T00:14:29;14.07;;;5.80;;
20203;SDS011;10261;49.010;12.034;2022-10-20T00:15:31;11.05;;;6.10;;
20203;SDS011;10261;49.010;12.034;2022-10-20T00:16:35;7.00;;;5.72;;
20203;SDS011;10261;49.010;12.034;2022-10-20T00:17:39;6.80;;;6.10;;
20203;SDS011;10261;49.010;12.034;2022-10-20T00:18:41;8.35;;;6.10;;
20203;SDS011;10261;49.010;12.034;2022-10-20T00:19:46;8.48;;;5.97;;
20203;SDS011;10261;49.010;12.034;2022-10-20T00:20:48;7.82;;;6.03;;
20203;SDS011;10261;49.010;12.034;2022-10-20T00:21:52;10.63;;;6.10;;
20203;SDS011;10261;49.010;12.034;2022-10-20T00:22:54;10.90;;;5.53;;
20203;SDS011;10261;49.010;12.034;2022-10-20T00:23:57;8.88;;;6.45;;
20203;SDS011;10261;49.010;12.034;2022-10-20T00:25:00;6.55;;;5.88;;
20203;SDS011;10261;49.010;12.034;2022-10-20T00:26:03;7.78;;;5.85;;
20203;SDS011;10261;49.010;12.034;2022-10-20T00:27:08;8.48;;;6.20;;
20203;SDS011;10261;49.010;12.034;2022-10-20T00:28:11;11.43;;;6.40;;
20203;SDS011;10261;49.010;12.034;2022-10-20T00:29:13;8.50;;;6.05;;
20203;SDS011;10261;49.010;12.034;2022-10-20T00:30:19;13.38;;;6.32;;
20203;SDS011;10261;49.010;12.034;2022-10-20T00:31:25;9.18;;;5.70;;
20203;SDS011;10261;49.010;12.034;2022-10-20T00:32:28;5.85;;;5.32;;
20203;SDS011;10261;49.010;12.034;2022-10-20T00:33:31;8.18;;;5.72;;
20203;SDS011;10261;49.010;12.034;2022-10-20T00:34:34;11.75;;;6.60;;
20203;SDS011;10261;49.010;12.034;2022-10-20T00:35:36;7.30;;;5.55;;
20203;SDS011;10261;49.010;12.034;2022-10-20T00:36:40;9.93;;;6.40;;
20203;SDS011;10261;49.010;12.034;2022-10-20T00:37:42;12.48;;;6.38;;
20203;SDS011;10261;49.010;12.034;2022-10-20T00:38:45;9.55;;;6.95;;
20203;SDS011;10261;49.010;12.034;2022-10-20T00:39:47;6.85;;;6.18;;
20203;SDS011;10261;49.010;12.034;2022-10-20T00:40:50;9.00;;;6.40;;
20203;SDS011;10261;49.010;12.034;2022-10-20T00:41:52;9.85;;;5.85;;
20203;SDS011;10261;49.010;12.034;2022-10-20T00:42:56;9.57;;;6.70;;
20203;SDS011;10261;49.010;12.034;2022-10-20T00:43:59;7.47;;;5.85;;
20203;SDS011;10261;49.010;12.034;2022-10-20T00:45:08;13.20;;;6.05;;
20203;SDS011;10261;49.010;12.034;2022-10-20T00:46:14;12.13;;;6.15;;
20203;SDS011;10261;49.010;12.034;2022-10-20T00:47:20;7.00;;;5.15;;
20203;SDS011;10261;49.010;12.034;2022-10-20T00:48:27;6.93;;;5.45;;
20203;SDS011;10261;49.010;12.034;2022-10-20T00:49:31;7.47;;;6.07;;
20203;SDS011;10261;49.010;12.034;2022-10-20T00:50:38;8.13;;;5.50;;
20203;SDS011;10261;49.010;12.034;2022-10-20T00:51:44;8.50;;;5.95;;
20203;SDS011;10261;49.010;12.034;2022-10-20T00:52:46;7.47;;;6.20;;
20203;SDS011;10261;49.010;12.034;2022-10-20T00:53:50;8.80;;;7.15;;
20203;SDS011;10261;49.010;12.034;2022-10-20T00:54:56;8.20;;;5.53;;
20203;SDS011;10261;49.010;12.034;2022-10-20T00:56:00;9.27;;;6.35;;
20203;SDS011;10261;49.010;12.034;2022-10-20T00:57:02;9.50;;;6.47;;
20203;SDS011;10261;49.010;12.034;2022-10-20T00:58:07;9.02;;;5.80;;
20203;SDS011;10261;49.010;12.034;2022-10-20T00:59:09;10.48;;;6.20;;
20203;SDS011;10261;49.010;12.034;2022-10-20T01:00:15;9.85;;;6.53;;
20203;SDS011;10261;49.010;12.034;2022-10-20T01:01:17;8.00;;;5.78;;
20203;SDS011;10261;49.010;12.034;2022-10-20T01:02:21;11.88;;;5.53;;
20203;SDS011;10261;49.010;12.034;2022-10-20T01:03:23;7.35;;;5.57;;
20203;SDS011;10261;49.010;12.034;2022-10-20T01:04:30;7.40;;;5.63;;
20203;SDS011;10261;49.010;12.034;2022-10-20T01:05:32;8.10;;;5.40;;
20203;SDS011;10261;49.010;12.034;2022-10-20T01:06:35;9.10;;;6.60;;
20203;SDS011;10261;49.010;12.034;2022-10-20T01:07:38;6.03;;;5.38;;
20203;SDS011;10261;49.010;12.034;2022-10-20T01:08:41;8.70;;;6.32;;
20203;SDS011;10261;49.010;12.034;2022-10-20T01:09:43;9.40;;;5.38;;
20203;SDS011;10261;49.010;12.034;2022-10-20T01:10:47;7.47;;;5.80;;
20203;SDS011;10261;49.010;12.034;2022-10-20T01:12:01;7.60;;;5.90;;
20203;SDS011;10261;49.010;12.034;2022-10-20T01:13:14;7.43;;;5.80;;
20203;SDS011;10261;49.010;12.034;2022-10-20T01:14:28;30.13;;;5.82;;
20203;SDS011;10261;49.010;12.034;2022-10-20T01:15:40;8.23;;;5.90;;
20203;SDS011;10261;49.010;12.034;2022-10-20T01:16:48;6.97;;;6.28;;
20203;SDS011;10261;49.010;12.034;2022-10-20T01:18:01;7.15;;;5.53;;
20203;SDS011;10261;49.010;12.034;2022-10-20T01:19:16;5.75;;;5.18;;
20203;SDS011;10261;49.010;12.034;2022-10-20T01:20:43;8.25;;;4.97;;
20203;SDS011;10261;49.010;12.034;2022-10-20T01:22:12;6.75;;;5.40;;
20203;SDS011;10261;49.010;12.034;2022-10-20T01:23:47;7.90;;;6.10;;
20203;SDS011;10261;49.010;12.034;2022-10-20T01:25:14;20.85;;;6.15;;
20203;SDS011;10261;49.010;12.034;2022-10-20T01:27:54;7.43;;;5.55;;
20203;SDS011;10261;49.010;12.034;2022-10-20T01:29:04;10.15;;;6.45;;
20203;SDS011;10261;49.010;12.034;2022-10-20T01:30:12;14.63;;;6.07;;
20203;SDS011;10261;49.010;12.034;2022-10-20T01:31:20;9.00;;;6.40;;
20203;SDS011;10261;49.010;12.034;2022-10-20T01:32:31;8.15;;;4.88;;
20203;SDS011;10261;49.010;12.034;2022-10-20T01:33:40;6.40;;;5.15;;
20203;SDS011;10261;49.010;12.034;2022-10-20T01:34:48;5.95;;;5.35;;
20203;SDS011;10261;49.010;12.034;2022-10-20T01:35:57;5.05;;;4.53;;
20203;SDS011;10261;49.010;12.034;2022-10-20T01:37:05;10.55;;;6.40;;
20203;SDS011;10261;49.010;12.034;2022-10-20T01:38:38;8.65;;;5.30;;
20203;SDS011;10261;49.010;12.034;2022-10-20T01:39:47;8.93;;;5.68;;
20203;SDS011;10261;49.010;12.034;2022-10-20T01:40:53;6.38;;;5.78;;
20203;SDS011;10261;49.010;12.034;2022-10-20T01:42:02;9.30;;;6.20;;
20203;SDS011;10261;49.010;12.034;2022-10-20T01:43:10;8.60;;;4.95;;
20203;SDS011;10261;49.010;12.034;2022-10-20T01:44:15;5.65;;;5.15;;
20203;SDS011;10261;49.010;12.034;2022-10-20T01:45:19;6.38;;;5.47;;
20203;SDS011;10261;49.010;12.034;2022-10-20T01:46:25;7.60;;;4.80;;
20203;SDS011;10261;49.010;12.034;2022-10-20T01:47:28;6.00;;;5.40;;
20203;SDS011;10261;49.010;12.034;2022-10-20T01:48:34;5.43;;;4.93;;
20203;SDS011;10261;49.010;12.034;2022-10-20T01:49:39;14.15;;;6.25;;
20203;SDS011;10261;49.010;12.034;2022-10-20T01:50:44;7.32;;;5.25;;
20203;SDS011;10261;49.010;12.034;2022-10-20T01:51:47;9.60;;;5.75;;
20203;SDS011;10261;49.010;12.034;2022-10-20T01:52:53;6.90;;;5.10;;
20203;SDS011;10261;49.010;12.034;2022-10-20T01:53:56;8.00;;;5.90;;
20203;SDS011;10261;49.010;12.034;2022-10-20T01:54:59;6.75;;;5.75;;
20203;SDS011;10261;49.010;12.034;2022-10-20T01:56:01;8.82;;;5.43;;
20203;SDS011;10261;49.010;12.034;2022-10-20T01:57:10;8.40;;;5.20;;
20203;SDS011;10261;49.010;12.034;2022-10-20T02:00:07;8.40;;;5.18;;
20203;SDS011;10261;49.010;12.034;2022-10-20T02:01:11;7.70;;;5.35;;
20203;SDS011;10261;49.010;12.034;2022-10-20T02:02:25;5.40;;;4.72;;
20203;SDS011;10261;49.010;12.034;2022-10-20T02:03:36;7.00;;;5.35;;
20203;SDS011;10261;49.010;12.034;2022-10-20T02:04:50;7.57;;;4.97;;
20203;SDS011;10261;49.010;12.034;2022-10-20T02:06:06;7.70;;;5.68;;
20203;SDS011;10261;49.010;12.034;2022-10-20T02:07:16;6.38;;;5.72;;
20203;SDS011;10261;49.010;12.034;2022-10-20T02:08:26;11.75;;;4.72;;
20203;SDS011;10261;49.010;12.034;2022-10-20T02:09:37;10.27;;;6.18;;
20203;SDS011;10261;49.010;12.034;2022-10-20T02:10:43;6.78;;;5.60;;
20203;SDS011;10261;49.010;12.034;2022-10-20T02:11:49;9.85;;;7.03;;
20203;SDS011;10261;49.010;12.034;2022-10-20T02:12:55;11.95;;;6.03;;
20203;SDS011;10261;49.010;12.034;2022-10-20T02:14:02;6.70;;;5.47;;
20203;SDS011;10261;49.010;12.034;2022-10-20T02:15:07;6.90;;;6.20;;
20203;SDS011;10261;49.010;12.034;2022-10-20T02:16:15;10.85;;;6.43;;
20203;SDS011;10261;49.010;12.034;2022-10-20T02:17:20;6.78;;;5.60;;
20203;SDS011;10261;49.010;12.034;2022-10-20T02:18:25;6.70;;;6.03;;
20203;SDS011;10261;49.010;12.034;2022-10-20T02:19:32;7.63;;;5.97;;
20203;SDS011;10261;49.010;12.034;2022-10-20T02:20:38;6.60;;;5.95;;
20203;SDS011;10261;49.010;12.034;2022-10-20T02:21:45;7.18;;;5.78;;
20203;SDS011;10261;49.010;12.034;2022-10-20T02:22:48;8.20;;;5.57;;
20203;SDS011;10261;49.010;12.034;2022-10-20T02:23:51;8.25;;;5.88;;
20203;SDS011;10261;49.010;12.034;2022-10-20T02:24:55;5.68;;;5.18;;
20203;SDS011;10261;49.010;12.034;2022-10-20T02:25:57;7.78;;;5.32;;
20203;SDS011;10261;49.010;12.034;2022-10-20T02:27:02;6.72;;;5.15;;
20203;SDS011;10261;49.010;12.034;2022-10-20T02:28:09;7.35;;;5.32;;
20203;SDS011;10261;49.010;12.034;2022-10-20T02:29:15;6.30;;;5.47;;
20203;SDS011;10261;49.010;12.034;2022-10-20T02:30:21;4.85;;;4.45;;
20203;SDS011;10261;49.010;12.034;2022-10-20T02:31:24;7.45;;;6.32;;
20203;SDS011;10261;49.010;12.034;2022-10-20T02:32:27;5.75;;;4.55;;
20203;SDS011;10261;49.010;12.034;2022-10-20T02:33:33;6.38;;;4.60;;
20203;SDS011;10261;49.010;12.034;2022-10-20T02:34:36;7.20;;;4.47;;
20203;SDS011;10261;49.010;12.034;2022-10-20T02:35:47;7.35;;;5.53;;
20203;SDS011;10261;49.010;12.034;2022-10-20T02:36:53;6.80;;;5.03;;
20203;SDS011;10261;49.010;12.034;2022-10-20T02:37:57;6.50;;;4.40;;
20203;SDS011;10261;49.010;12.034;2022-10-20T02:39:00;6.00;;;5.40;;
20203;SDS011;10261;49.010;12.034;2022-10-20T02:40:03;5.80;;;5.20;;
20203;SDS011;10261;49.010;12.034;2022-10-20T02:41:05;7.70;;;5.28;;
20203;SDS011;10261;49.010;12.034;2022-10-20T02:42:08;5.30;;;4.75;;
20203;SDS011;10261;49.010;12.034;2022-10-20T02:43:12;4.85;;;4.35;;
20203;SDS011;10261;49.010;12.034;2022-10-20T02:44:15;5.15;;;4.50;;
20203;SDS011;10261;49.010;12.034;2022-10-20T02:45:17;5.78;;;5.22;;
20203;SDS011;10261;49.010;12.034;2022-10-20T02:46:21;7.15;;;4.85;;
20203;SDS011;10261;49.010;12.034;2022-10-20T02:47:23;5.10;;;4.70;;
20203;SDS011;10261;49.010;12.034;2022-10-20T02:48:26;5.35;;;4.85;;
20203;SDS011;10261;49.010;12.034;2022-10-20T02:49:28;5.05;;;4.55;;
20203;SDS011;10261;49.010;12.034;2022-10-20T02:50:31;5.82;;;4.63;;
20203;SDS011;10261;49.010;12.034;2022-10-20T02:51:33;5.25;;;4.75;;
20203;SDS011;10261;49.010;12.034;2022-10-20T02:52:36;4.97;;;4.55;;
20203;SDS011;10261;49.010;12.034;2022-10-20T02:53:38;4.82;;;4.43;;
20203;SDS011;10261;49.010;12.034;2022-10-20T02:54:41;5.90;;;5.15;;
20203;SDS011;10261;49.010;12.034;2022-10-20T02:55:43;9.88;;;5.90;;
20203;SDS011;10261;49.010;12.034;2022-10-20T02:56:46;5.80;;;5.20;;
20203;SDS011;10261;49.010;12.034;2022-10-20T02:57:48;5.68;;;5.18;;
20203;SDS011;10261;49.010;12.034;2022-10-20T02:58:51;6.22;;;5.47;;
20203;SDS011;10261;49.010;12.034;2022-10-20T02:59:53;7.72;;;5.05;;
20203;SDS011;10261;49.010;12.034;2022-10-20T03:00:56;8.25;;;4.82;;
20203;SDS011;10261;49.010;12.034;2022-10-20T03:02:00;6.28;;;5.40;;
20203;SDS011;10261;49.010;12.034;2022-10-20T03:03:02;5.55;;;5.05;;
20203;SDS011;10261;49.010;12.034;2022-10-20T03:04:05;5.15;;;4.65;;
20203;SDS011;10261;49.010;12.034;2022-10-20T03:05:07;5.75;;;5.18;;
20203;SDS011;10261;49.010;12.034;2022-10-20T03:06:11;7.10;;;5.68;;
20203;SDS011;10261;49.010;12.034;2022-10-20T03:07:15;5.22;;;4.53;;
20203;SDS011;10261;49.010;12.034;2022-10-20T03:08:18;4.60;;;4.20;;
20203;SDS011;10261;49.010;12.034;2022-10-20T03:09:20;6.10;;;5.03;;
20203;SDS011;10261;49.010;12.034;2022-10-20T03:10:23;5.22;;;4.68;;
20203;SDS011;10261;49.010;12.034;2022-10-20T03:11:25;6.32;;;5.40;;
20203;SDS011;10261;49.010;12.034;2022-10-20T03:12:27;7.35;;;4.40;;
20203;SDS011;10261;49.010;12.034;2022-10-20T03:13:32;5.57;;;5.10;;
20203;SDS011;10261;49.010;12.034;2022-10-20T03:14:35;6.43;;;5.82;;
20203;SDS011;10261;49.010;12.034;2022-10-20T03:15:37;5.95;;;4.65;;
20203;SDS011;10261;49.010;12.034;2022-10-20T03:16:40;6.03;;;4.80;;
20203;SDS011;10261;49.010;12.034;2022-10-20T03:17:43;5.00;;;4.32;;
20203;SDS011;10261;49.010;12.034;2022-10-20T03:18:46;4.28;;;3.88;;
20203;SDS011;10261;49.010;12.034;2022-10-20T03:19:48;5.60;;;4.93;;
20203;SDS011;10261;49.010;12.034;2022-10-20T03:20:51;5.65;;;4.97;;
20203;SDS011;10261;49.010;12.034;2022-10-20T03:21:54;7.65;;;4.38;;
20203;SDS011;10261;49.010;12.034;2022-10-20T03:22:57;7.28;;;4.95;;
20203;SDS011;10261;49.010;12.034;2022-10-20T03:23:59;6.68;;;5.10;;
20203;SDS011;10261;49.010;12.034;2022-10-20T03:25:03;5.30;;;4.80;;
20203;SDS011;10261;49.010;12.034;2022-10-20T03:26:06;5.55;;;5.05;;
20203;SDS011;10261;49.010;12.034;2022-10-20T03:27:11;5.25;;;4.75;;
20203;SDS011;10261;49.010;12.034;2022-10-20T03:28:13;5.95;;;4.07;;
20203;SDS011;10261;49.010;12.034;2022-10-20T03:29:16;5.80;;;4.72;;
20203;SDS011;10261;49.010;12.034;2022-10-20T03:30:18;7.82;;;5.18;;
20203;SDS011;10261;49.010;12.034;2022-10-20T03:31:21;6.80;;;4.68;;
20203;SDS011;10261;49.010;12.034;2022-10-20T03:32:23;6.53;;;5.85;;
20203;SDS011;10261;49.010;12.034;2022-10-20T03:33:27;7.30;;;5.32;;
20203;SDS011;10261;49.010;12.034;2022-10-20T03:34:29;9.48;;;5.70;;
20203;SDS011;10261;49.010;12.034;2022-10-20T03:35:32;5.32;;;4.82;;
20203;SDS011;10261;49.010;12.034;2022-10-20T03:36:34;5.47;;;4.97;;
20203;SDS011;10261;49.010;12.034;2022-10-20T03:37:37;6.03;;;5.32;;
20203;SDS011;10261;49.010;12.034;2022-10-20T03:38:39;7.57;;;4.82;;
20203;SDS011;10261;49.010;12.034;2022-10-20T03:39:43;8.40;;;5.13;;
20203;SDS011;10261;49.010;12.034;2022-10-20T03:40:45;8.30;;;4.47;;
20203;SDS011;10261;49.010;12.034;2022-10-20T03:41:48;5.55;;;4.40;;
20203;SDS011;10261;49.010;12.034;2022-10-20T03:42:50;6.13;;;5.32;;
20203;SDS011;10261;49.010;12.034;2022-10-20T03:43:53;6.90;;;4.60;;
20203;SDS011;10261;49.010;12.034;2022-10-20T03:44:55;6.55;;;5.03;;
20203;SDS011;10261;49.010;12.034;2022-10-20T03:46:02;4.38;;;3.97;;
20203;SDS011;10261;49.010;12.034;2022-10-20T03:47:05;5.22;;;4.72;;
20203;SDS011;10261;49.010;12.034;2022-10-20T03:48:08;5.85;;;4.90;;
20203;SDS011;10261;49.010;12.034;2022-10-20T03:49:12;7.40;;;4.95;;
20203;SDS011;10261;49.010;12.034;2022-10-20T03:50:15;6.07;;;4.93;;
20203;SDS011;10261;49.010;12.034;2022-10-20T03:51:17;5.88;;;5.28;;
20203;SDS011;10261;49.010;12.034;2022-10-20T03:52:20;5.68;;;5.10;;
20203;SDS011;10261;49.010;12.034;2022-10-20T03:53:22;9.48;;;4.80;;
20203;SDS011;10261;49.010;12.034;2022-10-20T03:54:25;5.35;;;4.82;;
20203;SDS011;10261;49.010;12.034;2022-10-20T03:55:27;4.88;;;4.47;;
20203;SDS011;10261;49.010;12.034;2022-10-20T03:56:30;5.45;;;4.95;;
20203;SDS011;10261;49.010;12.034;2022-10-20T03:57:32;5.15;;;4.60;;
20203;SDS011;10261;49.010;12.034;2022-10-20T03:58:35;6.20;;;4.13;;
20203;SDS011;10261;49.010;12.034;2022-10-20T03:59:37;6.05;;;4.70;;
20203;SDS011;10261;49.010;12.034;2022-10-20T04:00:40;5.07;;;4.47;;
20203;SDS011;10261;49.010;12.034;2022-10-20T04:01:43;6.75;;;4.47;;
20203;SDS011;10261;49.010;12.034;2022-10-20T04:02:47;5.30;;;4.80;;
20203;SDS011;10261;49.010;12.034;2022-10-20T04:03:49;6.07;;;4.90;;
20203;SDS011;10261;49.010;12.034;2022-10-20T04:04:53;6.35;;;5.00;;
20203;SDS011;10261;49.010;12.034;2022-10-20T04:05:55;4.95;;;4.55;;
20203;SDS011;10261;49.010;12.034;2022-10-20T04:06:58;5.60;;;5.10;;
20203;SDS011;10261;49.010;12.034;2022-10-20T04:08:00;6.20;;;5.05;;
20203;SDS011;10261;49.010;12.034;2022-10-20T04:09:04;6.75;;;4.60;;
20203;SDS011;10261;49.010;12.034;2022-10-20T04:10:07;9.27;;;5.05;;
20203;SDS011;10261;49.010;12.034;2022-10-20T04:11:10;5.13;;;4.38;;
20203;SDS011;10261;49.010;12.034;2022-10-20T04:12:12;8.13;;;4.90;;
20203;SDS011;10261;49.010;12.034;2022-10-20T04:13:15;12.88;;;5.32;;
20203;SDS011;10261;49.010;12.034;2022-10-20T04:14:17;6.15;;;5.00;;
20203;SDS011;10261;49.010;12.034;2022-10-20T04:15:20;9.27;;;4.50;;
20203;SDS011;10261;49.010;12.034;2022-10-20T04:16:22;7.68;;;5.05;;
20203;SDS011;10261;49.010;12.034;2022-10-20T04:17:25;4.03;;;3.63;;
20203;SDS011;10261;49.010;12.034;2022-10-20T04:18:27;6.43;;;5.22;;
20203;SDS011;10261;49.010;12.034;2022-10-20T04:19:30;4.90;;;4.28;;
20203;SDS011;10261;49.010;12.034;2022-10-20T04:20:33;5.03;;;4.63;;
20203;SDS011;10261;49.010;12.034;2022-10-20T04:21:40;5.35;;;4.65;;
20203;SDS011;10261;49.010;12.034;2022-10-20T04:22:42;5.55;;;5.15;;
20203;SDS011;10261;49.010;12.034;2022-10-20T04:23:45;5.30;;;4.80;;
20203;SDS011;10261;49.010;12.034;2022-10-20T04:24:47;4.78;;;4.07;;
20203;SDS011;10261;49.010;12.034;2022-10-20T04:25:50;5.68;;;4.60;;
20203;SDS011;10261;49.010;12.034;2022-10-20T04:26:52;6.38;;;5.78;;
20203;SDS011;10261;49.010;12.034;2022-10-20T04:27:55;10.82;;;4.88;;
20203;SDS011;10261;49.010;12.034;2022-10-20T04:29:00;4.60;;;4.20;;
20203;SDS011;10261;49.010;12.034;2022-10-20T04:30:03;4.90;;;4.50;;
20203;SDS011;10261;49.010;12.034;2022-10-20T04:31:06;4.90;;;4.50;;
20203;SDS011;10261;49.010;12.034;2022-10-20T04:32:09;8.88;;;4.70;;
20203;SDS011;10261;49.010;12.034;2022-10-20T04:33:12;4.65;;;4.25;;
20203;SDS011;10261;49.010;12.034;2022-10-20T04:34:14;4.53;;;4.13;;
20203;SDS011;10261;49.010;12.034;2022-10-20T04:35:17;5.57;;;4.57;;
20203;SDS011;10261;49.010;12.034;2022-10-20T04:36:20;5.93;;;4.65;;
20203;SDS011;10261;49.010;12.034;2022-10-20T04:37:23;5.03;;;4.53;;
20203;SDS011;10261;49.010;12.034;2022-10-20T04:38:25;4.43;;;4.03;;
20203;SDS011;10261;49.010;12.034;2022-10-20T04:39:30;7.22;;;4.60;;
20203;SDS011;10261;49.010;12.034;2022-10-20T04:40:32;5.82;;;4.63;;
20203;SDS011;10261;49.010;12.034;2022-10-20T04:41:35;6.75;;;4.70;;
20203;SDS011;10261;49.010;12.034;2022-10-20T04:42:37;6.93;;;5.03;;
20203;SDS011;10261;49.010;12.034;2022-10-20T04:43:40;4.97;;;4.57;;
20203;SDS011;10261;49.010;12.034;2022-10-20T04:44:42;5.03;;;4.32;;
20203;SDS011;10261;49.010;12.034;2022-10-20T04:45:45;9.65;;;4.38;;
20203;SDS011;10261;49.010;12.034;2022-10-20T04:46:47;5.65;;;5.10;;
20203;SDS011;10261;49.010;12.034;2022-10-20T04:47:50;4.32;;;3.92;;
20203;SDS011;10261;49.010;12.034;2022-10-20T04:48:52;5.75;;;5.00;;
20203;SDS011;10261;49.010;12.034;2022-10-20T04:49:55;4.85;;;4.32;;
20203;SDS011;10261;49.010;12.034;2022-10-20T04:51:02;7.78;;;4.20;;
20203;SDS011;10261;49.010;12.034;2022-10-20T04:52:07;9.10;;;4.70;;
20203;SDS011;10261;49.010;12.034;2022-10-20T04:53:09;4.93;;;4.38;;
20203;SDS011;10261;49.010;12.034;2022-10-20T04:54:13;6.55;;;4.55;;
20203;SDS011;10261;49.010;12.034;2022-10-20T04:55:15;11.77;;;5.18;;
20203;SDS011;10261;49.010;12.034;2022-10-20T04:56:19;6.43;;;4.10;;
20203;SDS011;10261;49.010;12.034;2022-10-20T04:57:22;5.32;;;4.53;;
20203;SDS011;10261;49.010;12.034;2022-10-20T04:58:25;5.63;;;5.10;;
20203;SDS011;10261;49.010;12.034;2022-10-20T04:59:28;5.03;;;4.53;;
20203;SDS011;10261;49.010;12.034;2022-10-20T05:00:31;5.93;;;4.72;;
20203;SDS011;10261;49.010;12.034;2022-10-20T05:01:33;5.22;;;4.82;;
20203;SDS011;10261;49.010;12.034;2022-10-20T05:02:36;5.60;;;5.10;;
20203;SDS011;10261;49.010;12.034;2022-10-20T05:03:38;9.70;;;4.70;;
20203;SDS011;10261;49.010;12.034;2022-10-20T05:04:41;7.35;;;5.20;;
20203;SDS011;10261;49.010;12.034;2022-10-20T05:05:43;5.43;;;4.93;;
20203;SDS011;10261;49.010;12.034;2022-10-20T05:06:46;4.80;;;4.30;;
20203;SDS011;10261;49.010;12.034;2022-10-20T05:07:50;6.20;;;4.65;;
20203;SDS011;10261;49.010;12.034;2022-10-20T05:08:54;5.93;;;3.90;;
20203;SDS011;10261;49.010;12.034;2022-10-20T05:09:58;5.20;;;4.70;;
20203;SDS011;10261;49.010;12.034;2022-10-20T05:11:00;5.18;;;4.43;;
20203;SDS011;10261;49.010;12.034;2022-10-20T05:12:03;5.13;;;4.47;;
20203;SDS011;10261;49.010;12.034;2022-10-20T05:13:05;5.05;;;4.07;;
20203;SDS011;10261;49.010;12.034;2022-10-20T05:14:08;5.65;;;4.07;;
20203;SDS011;10261;49.010;12.034;2022-10-20T05:15:10;4.68;;;4.28;;
20203;SDS011;10261;49.010;12.034;2022-10-20T05:16:13;5.63;;;4.90;;
20203;SDS011;10261;49.010;12.034;2022-10-20T05:17:17;7.05;;;4.75;;
20203;SDS011;10261;49.010;12.034;2022-10-20T05:18:20;8.00;;;4.57;;
20203;SDS011;10261;49.010;12.034;2022-10-20T05:19:22;4.80;;;4.32;;
20203;SDS011;10261;49.010;12.034;2022-10-20T05:20:25;5.65;;;5.15;;
20203;SDS011;10261;49.010;12.034;2022-10-20T05:21:27;6.15;;;4.75;;
20203;SDS011;10261;49.010;12.034;2022-10-20T05:22:32;5.55;;;4.47;;
20203;SDS011;10261;49.010;12.034;2022-10-20T05:23:36;11.57;;;4.82;;
20203;SDS011;10261;49.010;12.034;2022-10-20T05:24:40;4.50;;;3.88;;
20203;SDS011;10261;49.010;12.034;2022-10-20T05:25:42;7.80;;;4.95;;
20203;SDS011;10261;49.010;12.034;2022-10-20T05:26:45;6.25;;;5.60;;
20203;SDS011;10261;49.010;12.034;2022-10-20T05:27:48;5.55;;;4.80;;
20203;SDS011;10261;49.010;12.034;2022-10-20T05:28:50;7.15;;;4.50;;
20203;SDS011;10261;49.010;12.034;2022-10-20T05:29:54;6.32;;;5.00;;
20203;SDS011;10261;49.010;12.034;2022-10-20T05:30:59;6.47;;;4.60;;
20203;SDS011;10261;49.010;12.034;2022-10-20T05:32:02;5.88;;;5.32;;
20203;SDS011;10261;49.010;12.034;2022-10-20T05:33:05;5.55;;;4.85;;
20203;SDS011;10261;49.010;12.034;2022-10-20T05:34:08;6.22;;;5.63;;
20203;SDS011;10261;49.010;12.034;2022-10-20T05:35:12;6.13;;;5.40;;
20203;SDS011;10261;49.010;12.034;2022-10-20T05:36:14;6.95;;;5.53;;
20203;SDS011;10261;49.010;12.034;2022-10-20T05:37:21;5.70;;;5.20;;
20203;SDS011;10261;49.010;12.034;2022-10-20T05:38:27;7.07;;;6.38;;
20203;SDS011;10261;49.010;12.034;2022-10-20T05:39:31;7.53;;;6.78;;
20203;SDS011;10261;49.010;12.034;2022-10-20T05:40:33;7.93;;;7.22;;
20203;SDS011;10261;49.010;12.034;2022-10-20T05:41:36;8.38;;;7.10;;
20203;SDS011;10261;49.010;12.034;2022-10-20T05:42:39;8.20;;;7.50;;
20203;SDS011;10261;49.010;12.034;2022-10-20T05:43:46;7.22;;;6.55;;
20203;SDS011;10261;49.010;12.034;2022-10-20T05:44:49;9.90;;;6.40;;
20203;SDS011;10261;49.010;12.034;2022-10-20T05:45:52;6.90;;;6.25;;
20203;SDS011;10261;49.010;12.034;2022-10-20T05:46:55;6.85;;;6.15;;
20203;SDS011;10261;49.010;12.034;2022-10-20T05:47:57;12.43;;;6.30;;
20203;SDS011;10261;49.010;12.034;2022-10-20T05:49:01;11.93;;;6.57;;
20203;SDS011;10261;49.010;12.034;2022-10-20T05:50:03;7.97;;;5.93;;
20203;SDS011;10261;49.010;12.034;2022-10-20T05:51:07;7.22;;;6.45;;
20203;SDS011;10261;49.010;12.034;2022-10-20T05:52:15;7.10;;;6.50;;
20203;SDS011;10261;49.010;12.034;2022-10-20T05:53:18;8.25;;;6.75;;
20203;SDS011;10261;49.010;12.034;2022-10-20T05:54:20;9.23;;;8.32;;
20203;SDS011;10261;49.010;12.034;2022-10-20T05:55:24;8.70;;;7.80;;
20203;SDS011;10261;49.010;12.034;2022-10-20T05:56:27;9.00;;;8.25;;
20203;SDS011;10261;49.010;12.034;2022-10-20T05:57:30;7.63;;;6.90;;
20203;SDS011;10261;49.010;12.034;2022-10-20T05:58:32;7.35;;;6.75;;
20203;SDS011;10261;49.010;12.034;2022-10-20T05:59:36;7.35;;;6.28;;
20203;SDS011;10261;49.010;12.034;2022-10-20T06:00:38;6.93;;;6.32;;
20203;SDS011;10261;49.010;12.034;2022-10-20T06:01:51;7.20;;;6.47;;
20203;SDS011;10261;49.010;12.034;2022-10-20T06:02:55;5.93;;;5.50;;
20203;SDS011;10261;49.010;12.034;2022-10-20T06:03:58;5.22;;;4.72;;
20203;SDS011;10261;49.010;12.034;2022-10-20T06:05:01;7.95;;;6.15;;
20203;SDS011;10261;49.010;12.034;2022-10-20T06:06:03;5.70;;;5.20;;
20203;SDS011;10261;49.010;12.034;2022-10-20T06:07:06;5.18;;;4.68;;
20203;SDS011;10261;49.010;12.034;2022-10-20T06:08:10;5.15;;;4.75;;
20203;SDS011;10261;49.010;12.034;2022-10-20T06:09:12;12.27;;;5.20;;
20203;SDS011;10261;49.010;12.034;2022-10-20T06:10:15;7.15;;;4.47;;
20203;SDS011;10261;49.010;12.034;2022-10-20T06:11:19;4.72;;;4.28;;
20203;SDS011;10261;49.010;12.034;2022-10-20T06:12:23;8.20;;;5.45;;
20203;SDS011;10261;49.010;12.034;2022-10-20T06:13:25;4.82;;;4.47;;
20203;SDS011;10261;49.010;12.034;2022-10-20T06:14:28;6.00;;;4.60;;
20203;SDS011;10261;49.010;12.034;2022-10-20T06:15:31;4.30;;;3.90;;
20203;SDS011;10261;49.010;12.034;2022-10-20T06:16:34;7.97;;;4.80;;
20203;SDS011;10261;49.010;12.034;2022-10-20T06:17:36;5.13;;;4.57;;
20203;SDS011;10261;49.010;12.034;2022-10-20T06:18:39;5.93;;;5.00;;
20203;SDS011;10261;49.010;12.034;2022-10-20T06:19:43;5.20;;;4.80;;
20203;SDS011;10261;49.010;12.034;2022-10-20T06:20:46;4.60;;;4.20;;
20203;SDS011;10261;49.010;12.034;2022-10-20T06:21:48;5.07;;;4.57;;
20203;SDS011;10261;49.010;12.034;2022-10-20T06:22:51;5.35;;;4.95;;
20203;SDS011;10261;49.010;12.034;2022-10-20T06:23:53;6.68;;;4.45;;
20203;SDS011;10261;49.010;12.034;2022-10-20T06:24:56;6.25;;;4.75;;